createdAt,value
2019-04-29T00:01:02.010Z,10.60
2019-04-29T00:04:05.741Z,10.50
2019-04-29T00:07:09.722Z,10.40
2019-04-29T00:10:16.902Z,10.40
2019-04-29T00:13:20.954Z,10.40
2019-04-29T00:16:39.850Z,10.40
2019-04-29T00:19:55.032Z,10.40
2019-04-29T00:22:58.746Z,10.40
2019-04-29T00:26:02.666Z,10.40
2019-04-29T00:29:06.602Z,10.40
2019-04-29T00:32:11.035Z,10.50
2019-04-29T00:35:15.082Z,10.50
2019-04-29T00:38:42.645Z,10.50
2019-04-29T00:41:56.701Z,10.50
2019-04-29T00:45:00.500Z,10.50
2019-04-29T00:48:04.285Z,10.50
2019-04-29T00:51:08.150Z,10.40
2019-04-29T00:54:18.862Z,10.30
2019-04-29T00:57:22.578Z,10.30
2019-04-29T01:00:38.751Z,10.30
2019-04-29T01:03:42.529Z,10.30
2019-04-29T01:06:46.365Z,10.30
2019-04-29T01:09:50.258Z,10.20
2019-04-29T01:12:53.948Z,10.20
2019-04-29T01:15:57.905Z,10.20
2019-04-29T01:19:03.944Z,10.30
2019-04-29T01:22:07.232Z,10.20
2019-04-29T01:25:12.213Z,10.20
2019-04-29T01:28:30.638Z,10.20
2019-04-29T01:31:34.334Z,10.20
2019-04-29T01:34:47.998Z,10.20
2019-04-29T01:37:52.099Z,10.10
2019-04-29T01:41:02.659Z,10.10
2019-04-29T01:44:07.341Z,10.10
2019-04-29T01:47:11.317Z,10.00
2019-04-29T01:50:14.994Z,10.10
2019-04-29T01:53:18.885Z,10.10
2019-04-29T01:56:22.549Z,10.00
2019-04-29T01:59:26.486Z,10.00
2019-04-29T02:02:30.195Z,10.10
2019-04-29T02:05:33.874Z,10.00
2019-04-29T02:08:37.638Z,10.00
2019-04-29T02:11:41.702Z,10.00
2019-04-29T02:14:45.393Z,9.90
2019-04-29T02:17:49.094Z,9.90
2019-04-29T02:20:52.777Z,9.90
2019-04-29T02:24:03.123Z,9.80
2019-04-29T02:27:07.093Z,9.80
2019-04-29T02:30:11.205Z,9.70
2019-04-29T02:33:14.922Z,9.70
2019-04-29T02:36:18.599Z,9.60
2019-04-29T02:39:34.983Z,9.60
2019-04-29T02:43:00.614Z,9.70
2019-04-29T02:46:04.474Z,9.60
2019-04-29T02:49:08.532Z,9.60
2019-04-29T02:52:13.187Z,9.60
2019-04-29T02:55:21.574Z,9.60
2019-04-29T02:58:31.990Z,9.60
2019-04-29T03:01:49.435Z,9.60
2019-04-29T03:05:10.438Z,9.50
2019-04-29T03:08:16.089Z,9.50
2019-04-29T03:11:20.594Z,9.50
2019-04-29T03:14:24.398Z,9.60
2019-04-29T03:17:29.079Z,9.50
2019-04-29T03:20:39.248Z,9.60
2019-04-29T03:23:42.924Z,9.60
2019-04-29T03:26:46.634Z,9.60
2019-04-29T03:29:50.299Z,9.60
2019-04-29T03:32:54.059Z,9.60
2019-04-29T03:35:57.779Z,9.60
2019-04-29T03:39:01.529Z,9.50
2019-04-29T03:42:07.359Z,9.50
2019-04-29T03:45:11.091Z,9.60
2019-04-29T03:48:14.785Z,9.50
2019-04-29T03:51:18.565Z,9.60
2019-04-29T03:54:22.267Z,9.50
2019-04-29T03:57:26.042Z,9.50
2019-04-29T04:00:30.050Z,9.50
2019-04-29T04:03:37.566Z,9.60
2019-04-29T04:06:48.711Z,9.60
2019-04-29T04:09:52.392Z,9.60
2019-04-29T04:12:56.089Z,9.60
2019-04-29T04:16:00.315Z,9.60
2019-04-29T04:19:09.014Z,9.60
2019-04-29T04:22:12.946Z,9.60
2019-04-29T04:25:18.116Z,9.60
2019-04-29T04:28:22.095Z,9.70
2019-04-29T04:31:25.767Z,9.70
2019-04-29T04:34:29.469Z,9.70
2019-04-29T04:37:33.216Z,9.70
2019-04-29T04:40:41.188Z,9.70
2019-04-29T04:43:44.983Z,9.70
2019-04-29T04:46:48.979Z,9.70
2019-04-29T04:49:52.691Z,9.70
2019-04-29T04:52:56.369Z,9.70
2019-04-29T04:56:01.449Z,9.70
2019-04-29T04:59:05.288Z,9.70
2019-04-29T05:02:09.027Z,9.70
2019-04-29T05:05:12.726Z,10.00
2019-04-29T05:08:16.375Z,9.80
2019-04-29T05:11:20.112Z,9.80
2019-04-29T05:14:23.986Z,9.80
2019-04-29T05:17:27.725Z,9.80
2019-04-29T05:20:31.481Z,9.90
2019-04-29T05:23:35.439Z,9.90
2019-04-29T05:26:41.041Z,9.90
2019-04-29T05:29:44.718Z,9.90
2019-04-29T05:32:48.545Z,10.00
2019-04-29T05:36:09.278Z,10.00
2019-04-29T05:39:17.563Z,10.00
2019-04-29T05:42:21.278Z,10.00
2019-04-29T05:45:34.641Z,10.10
2019-04-29T05:48:38.357Z,10.10
2019-04-29T05:51:57.451Z,10.10
2019-04-29T05:55:01.509Z,10.10
2019-04-29T05:58:11.603Z,10.10
2019-04-29T06:01:20.158Z,10.10
2019-04-29T06:04:23.890Z,10.00
2019-04-29T06:07:28.719Z,10.00
2019-04-29T06:10:32.430Z,10.00
2019-04-29T06:13:36.139Z,10.10
2019-04-29T06:16:39.949Z,10.10
2019-04-29T06:19:44.125Z,10.10
2019-04-29T06:22:47.881Z,10.10
2019-04-29T06:25:51.555Z,10.10
2019-04-29T06:28:55.433Z,10.10
2019-04-29T06:31:59.146Z,10.20
2019-04-29T06:35:02.802Z,10.20
2019-04-29T06:38:06.603Z,10.20
2019-04-29T06:41:10.957Z,10.30
2019-04-29T06:44:16.582Z,10.30
2019-04-29T06:47:20.098Z,10.40
2019-04-29T06:50:23.816Z,10.40
2019-04-29T06:53:27.521Z,10.40
2019-04-29T06:56:31.309Z,10.50
2019-04-29T06:59:35.195Z,10.50
2019-04-29T07:02:39.191Z,10.40
2019-04-29T07:05:43.076Z,10.40
2019-04-29T07:08:46.797Z,10.40
2019-04-29T07:11:50.481Z,10.40
2019-04-29T07:14:54.197Z,10.50
2019-04-29T07:17:57.961Z,10.50
2019-04-29T07:21:01.946Z,10.40
2019-04-29T07:24:05.955Z,10.50
2019-04-29T07:27:09.721Z,10.50
2019-04-29T07:30:13.682Z,10.60
2019-04-29T07:33:21.822Z,10.70
2019-04-29T07:36:23.898Z,10.80
2019-04-29T07:39:31.638Z,10.80
2019-04-29T07:42:33.463Z,10.90
2019-04-29T07:45:52.499Z,10.90
2019-04-29T07:49:01.796Z,10.90
2019-04-29T07:52:01.891Z,10.90
2019-04-29T07:55:05.674Z,10.90
2019-04-29T07:58:09.986Z,10.90
2019-04-29T08:01:13.739Z,10.90
2019-04-29T08:04:17.453Z,10.90
2019-04-29T08:07:21.814Z,10.90
2019-04-29T08:10:28.574Z,10.80
2019-04-29T08:13:32.739Z,10.80
2019-04-29T08:16:36.471Z,10.80
2019-04-29T08:19:40.442Z,10.80
2019-04-29T08:22:44.100Z,10.70
2019-04-29T08:25:50.763Z,10.70
2019-04-29T08:29:00.344Z,10.80
2019-04-29T08:32:02.305Z,10.80
2019-04-29T08:35:04.681Z,10.80
2019-04-29T08:38:08.338Z,10.80
2019-04-29T08:41:12.061Z,10.80
2019-04-29T08:44:24.349Z,10.80
2019-04-29T08:47:31.831Z,10.80
2019-04-29T08:50:35.723Z,10.80
2019-04-29T08:53:39.735Z,10.80
2019-04-29T08:57:01.593Z,10.90
2019-04-29T08:59:48.850Z,11.00
2019-04-29T09:02:52.655Z,11.00
2019-04-29T09:06:05.184Z,11.10
2019-04-29T09:09:04.936Z,11.20
2019-04-29T09:12:07.430Z,11.40
2019-04-29T09:15:12.008Z,11.60
2019-04-29T09:18:15.730Z,11.70
2019-04-29T09:21:19.442Z,11.80
2019-04-29T09:24:23.130Z,11.70
2019-04-29T09:27:26.886Z,11.80
2019-04-29T09:30:30.736Z,11.90
2019-04-29T09:33:34.497Z,12.00
2019-04-29T09:36:38.255Z,12.00
2019-04-29T09:39:44.042Z,12.00
2019-04-29T09:43:15.405Z,12.10
2019-04-29T09:46:14.405Z,12.10
2019-04-29T09:49:18.089Z,12.20
2019-04-29T09:52:22.039Z,12.10
2019-04-29T09:55:25.946Z,12.20
2019-04-29T09:58:29.581Z,12.10
2019-04-29T10:01:50.396Z,11.90
2019-04-29T10:05:16.922Z,11.80
2019-04-29T10:08:21.012Z,11.70
2019-04-29T10:11:24.809Z,11.70
2019-04-29T10:14:28.554Z,11.80
2019-04-29T10:17:53.555Z,11.90
2019-04-29T10:20:58.820Z,11.90
2019-04-29T10:24:02.486Z,11.90
2019-04-29T10:27:07.369Z,12.00
2019-04-29T10:30:11.658Z,12.00
2019-04-29T10:33:17.542Z,12.00
2019-04-29T10:36:21.915Z,12.00
2019-04-29T10:39:43.543Z,12.10
2019-04-29T10:43:05.087Z,12.10
2019-04-29T10:46:26.683Z,12.20
2019-04-29T10:49:39.308Z,12.30
2019-04-29T10:52:43.523Z,12.40
2019-04-29T10:55:47.320Z,12.50
2019-04-29T10:58:50.989Z,12.70
2019-04-29T11:02:29.708Z,12.80
2019-04-29T11:05:44.621Z,12.80
2019-04-29T11:08:56.304Z,12.80
2019-04-29T11:12:00.497Z,12.80
2019-04-29T11:15:05.026Z,12.90
2019-04-29T11:18:08.778Z,12.90
2019-04-29T11:21:12.438Z,12.90
2019-04-29T11:24:25.505Z,12.90
2019-04-29T11:27:34.442Z,12.90
2019-04-29T11:30:39.498Z,13.00
2019-04-29T11:34:18.882Z,13.10
2019-04-29T11:37:24.064Z,13.10
2019-04-29T11:40:42.431Z,13.20
2019-04-29T11:43:33.486Z,13.30
2019-04-29T11:46:37.238Z,13.40
2019-04-29T11:49:50.522Z,13.40
2019-04-29T11:52:55.650Z,13.40
2019-04-29T11:55:59.702Z,13.30
2019-04-29T11:59:32.596Z,13.30
2019-04-29T12:02:47.150Z,13.40
2019-04-29T12:05:54.633Z,13.70
2019-04-29T12:08:58.386Z,13.90
2019-04-29T12:12:02.330Z,13.90
2019-04-29T12:15:37.709Z,14.10
2019-04-29T12:18:50.458Z,14.40
2019-04-29T12:21:54.420Z,14.60
2019-04-29T12:24:58.181Z,14.70
2019-04-29T12:28:12.375Z,14.70
2019-04-29T12:31:19.089Z,14.90
2019-04-29T12:34:41.935Z,14.90
2019-04-29T12:38:11.273Z,15.10
2019-04-29T12:41:47.681Z,15.30
2019-04-29T12:44:49.923Z,15.60
2019-04-29T12:47:53.722Z,15.70
2019-04-29T12:50:57.841Z,16.00
2019-04-29T12:54:01.553Z,16.10
2019-04-29T12:57:05.394Z,16.40
2019-04-29T13:00:11.366Z,16.60
2019-04-29T13:03:39.419Z,16.70
2019-04-29T13:07:00.214Z,16.80
2019-04-29T13:10:13.805Z,17.00
2019-04-29T13:13:20.146Z,17.20
2019-04-29T13:16:30.641Z,17.30
2019-04-29T13:19:45.959Z,17.30
2019-04-29T13:22:48.842Z,17.30
2019-04-29T13:25:56.138Z,17.30
2019-04-29T13:29:01.034Z,17.40
2019-04-29T13:32:03.549Z,17.30
2019-04-29T13:35:10.889Z,17.30
2019-04-29T13:38:14.513Z,17.20
2019-04-29T13:41:23.363Z,17.20
2019-04-29T13:44:23.686Z,17.20
2019-04-29T13:47:36.626Z,17.20
2019-04-29T13:50:47.150Z,17.20
2019-04-29T13:53:59.856Z,17.30
2019-04-29T13:57:10.746Z,17.40
2019-04-29T14:00:26.301Z,17.60
2019-04-29T14:03:42.108Z,18.00
2019-04-29T14:06:56.492Z,18.20
2019-04-29T14:09:51.702Z,18.30
2019-04-29T14:13:09.096Z,18.30
2019-04-29T14:16:01.557Z,18.50
2019-04-29T14:19:08.537Z,18.80
2019-04-29T14:22:22.092Z,19.00
2019-04-29T14:25:16.886Z,19.10
2019-04-29T14:28:20.627Z,18.90
2019-04-29T14:31:24.625Z,18.60
2019-04-29T14:34:36.906Z,18.60
2019-04-29T14:37:53.958Z,18.70
2019-04-29T14:40:46.352Z,18.90
2019-04-29T14:44:00.179Z,18.80
2019-04-29T14:47:18.693Z,18.90
2019-04-29T14:50:22.380Z,19.10
2019-04-29T14:53:26.402Z,19.20
2019-04-29T14:56:30.060Z,19.20
2019-04-29T14:59:33.922Z,19.20
2019-04-29T15:02:37.759Z,19.10
2019-04-29T15:05:41.646Z,19.20
2019-04-29T15:08:45.718Z,19.30
2019-04-29T15:12:11.761Z,19.40
2019-04-29T15:15:34.140Z,19.40
2019-04-29T15:18:52.729Z,19.40
2019-04-29T15:22:00.410Z,19.40
2019-04-29T15:25:04.678Z,19.50
2019-04-29T15:28:09.130Z,19.50
2019-04-29T15:31:14.056Z,19.50
2019-04-29T15:34:18.726Z,19.40
2019-04-29T15:37:22.451Z,19.30
2019-04-29T15:40:28.627Z,19.20
2019-04-29T15:43:46.463Z,19.10
2019-04-29T15:46:46.387Z,19.20
2019-04-29T15:49:42.728Z,19.20
2019-04-29T15:52:46.465Z,19.10
2019-04-29T15:55:51.397Z,19.00
2019-04-29T15:58:59.613Z,19.00
2019-04-29T16:02:04.243Z,19.00
2019-04-29T16:05:30.443Z,18.90
2019-04-29T16:08:45.654Z,18.70
2019-04-29T16:12:14.450Z,18.60
2019-04-29T16:15:16.780Z,18.60
2019-04-29T16:18:20.613Z,18.30
2019-04-29T16:21:24.326Z,18.20
2019-04-29T16:24:37.645Z,18.20
2019-04-29T16:27:33.742Z,18.10
2019-04-29T16:30:38.403Z,18.00
2019-04-29T16:33:47.592Z,17.80
2019-04-29T16:39:59.708Z,17.70
2019-04-29T16:43:05.221Z,17.50
2019-04-29T16:46:12.490Z,17.40
2019-04-29T16:49:16.433Z,17.30
2019-04-29T16:52:20.134Z,17.20
2019-04-29T16:55:23.939Z,17.00
2019-04-29T16:58:27.590Z,17.00
2019-04-29T17:01:31.521Z,16.90
2019-04-29T17:04:35.734Z,16.80
2019-04-29T17:07:39.450Z,16.60
2019-04-29T17:10:56.237Z,16.40
2019-04-29T17:14:03.683Z,16.40
2019-04-29T17:17:07.622Z,16.20
2019-04-29T17:20:11.958Z,16.10
2019-04-29T17:23:23.935Z,16.00
2019-04-29T17:26:23.098Z,15.80
2019-04-29T17:29:49.322Z,15.70
2019-04-29T17:32:58.270Z,15.60
2019-04-29T17:35:17.844Z,17.70
2019-04-29T17:36:02.774Z,15.50
2019-04-29T17:39:07.875Z,15.30
2019-04-29T17:42:11.939Z,15.20
2019-04-29T17:45:29.099Z,15.10
2019-04-29T17:48:41.007Z,15.00
2019-04-29T17:51:45.921Z,14.90
2019-04-29T17:54:51.681Z,14.80
2019-04-29T17:58:01.021Z,14.60
2019-04-29T18:01:42.945Z,14.50
2019-04-29T18:05:01.168Z,14.40
2019-04-29T18:08:21.961Z,14.30
2019-04-29T18:11:25.687Z,14.10
2019-04-29T18:14:36.334Z,14.00
2019-04-29T18:17:36.545Z,13.80
2019-04-29T18:24:29.559Z,13.70
2019-04-29T18:27:36.870Z,13.50
2019-04-29T18:30:41.205Z,13.30
2019-04-29T18:33:45.159Z,13.20
2019-04-29T18:36:49.262Z,13.10
2019-04-29T18:39:53.010Z,13.00
2019-04-29T18:42:56.755Z,12.90
2019-04-29T18:46:00.662Z,12.80
2019-04-29T18:49:06.568Z,12.60
2019-04-29T18:52:11.488Z,12.50
2019-04-29T18:55:15.365Z,12.40
2019-04-29T18:58:19.110Z,12.20
2019-04-29T19:01:24.112Z,12.10
2019-04-29T19:04:35.520Z,12.00
2019-04-29T19:07:39.798Z,11.90
2019-04-29T19:10:43.710Z,11.80
2019-04-29T19:13:48.380Z,11.70
2019-04-29T19:17:00.146Z,11.70
2019-04-29T19:19:58.397Z,11.60
2019-04-29T19:23:07.917Z,11.50
2019-04-29T19:26:07.935Z,11.40
2019-04-29T19:29:11.729Z,11.30
2019-04-29T19:32:18.931Z,11.20
2019-04-29T19:35:21.115Z,11.10
2019-04-29T19:38:25.346Z,11.10
2019-04-29T19:41:29.186Z,11.00
2019-04-29T19:44:33.614Z,10.90
2019-04-29T19:47:38.315Z,10.90
2019-04-29T19:50:42.091Z,10.80
2019-04-29T19:53:49.436Z,10.80
2019-04-29T19:56:55.617Z,10.70
2019-04-29T19:59:58.232Z,10.60
2019-04-29T20:03:18.014Z,10.60
2019-04-29T20:06:21.438Z,10.50
2019-04-29T20:09:22.506Z,10.50
2019-04-29T20:12:25.822Z,10.50
2019-04-29T20:15:34.233Z,10.40
2019-04-29T20:19:01.515Z,10.40
2019-04-29T20:22:07.457Z,10.30
2019-04-29T20:25:09.133Z,10.20
2019-04-29T20:28:19.767Z,10.10
2019-04-29T20:31:22.396Z,10.00
2019-04-29T20:34:28.093Z,10.00
2019-04-29T20:37:31.051Z,9.90
2019-04-29T20:40:42.721Z,9.90
2019-04-29T20:43:41.400Z,9.80
2019-04-29T20:47:12.402Z,9.70
2019-04-29T20:49:50.805Z,9.70
2019-04-29T20:53:25.932Z,9.60
2019-04-29T20:56:34.806Z,9.60
2019-04-29T20:59:35.928Z,9.50
2019-04-29T21:02:40.366Z,9.40
2019-04-29T21:05:49.646Z,9.40
2019-04-29T21:08:50.946Z,9.30
2019-04-29T21:12:06.127Z,9.20
2019-04-29T21:15:16.337Z,9.20
2019-04-29T21:18:20.455Z,9.40
2019-04-29T21:21:25.602Z,9.10
2019-04-29T21:24:29.583Z,9.10
2019-04-29T21:27:35.200Z,9.20
2019-04-29T21:30:42.570Z,9.00
2019-04-29T21:33:45.597Z,9.00
2019-04-29T21:36:57.110Z,8.90
2019-04-29T21:40:14.793Z,8.90
2019-04-29T21:43:20.989Z,8.80
2019-04-29T21:46:29.129Z,9.00
2019-04-29T21:49:42.732Z,8.70
2019-04-29T21:52:35.836Z,8.80
2019-04-29T21:55:39.602Z,8.60
2019-04-29T21:58:43.552Z,8.60
2019-04-29T22:01:47.454Z,8.60
2019-04-29T22:04:51.125Z,8.70
2019-04-29T22:07:54.849Z,8.70
2019-04-29T22:11:04.924Z,8.50
2019-04-29T22:14:05.582Z,8.40
2019-04-29T22:17:10.009Z,8.40
2019-04-29T22:20:15.817Z,8.50
2019-04-29T22:23:19.870Z,8.40
2019-04-29T22:26:26.881Z,8.20
2019-04-29T22:29:32.151Z,8.60
2019-04-29T22:32:34.978Z,8.20
2019-04-29T22:35:40.792Z,8.30
2019-04-29T22:38:48.725Z,8.10
2019-04-29T22:42:23.681Z,8.20
2019-04-29T22:45:29.482Z,8.20
2019-04-29T22:48:34.817Z,8.10
2019-04-29T22:51:38.691Z,8.30
2019-04-29T22:54:42.384Z,8.40
2019-04-29T22:57:46.945Z,8.10
2019-04-29T23:00:50.818Z,8.10
2019-04-29T23:03:55.422Z,8.10
2019-04-29T23:06:59.434Z,8.10
2019-04-29T23:10:03.290Z,8.10
2019-04-29T23:13:07.310Z,8.10
2019-04-29T23:16:11.139Z,7.90
2019-04-29T23:19:17.868Z,8.00
2019-04-29T23:22:46.777Z,8.00
